• Join FlightAware (Why Join?)
  • Login
  • US Flag 
07:29PM EST


 

Airport Tracker/Info


-or-


 

Live Flight TrackerFlight Track Log ✈ ASQ5685 ✈ 25-Apr-2013 ✈ KBTV - KIAD

Flight Track Log - Related Links

Times and Time Zones

All times are in EDT time to prevent confusion due to time zone crossing. See the ASQ5685 flight status page for this flight to view local times or setup timezone preferences in your user account.

Time Position Orientation Groundspeed Altitude Reporting Facility
EDT Latitude Longitude Course Direction KTS MPH feet Rate Location/Type
02:28PM 44.4497 -73.3269 195° South 226 260 6,500  Level Boston Center
02:29PM 44.1310 -73.2743 196° South  Level FlightAware Approximate
02:29PM 44.3764 -73.3519 194° South 233 268 9,400  Level Boston Center
02:30PM 44.0473 -73.3078 196° South  Level FlightAware Approximate
02:30PM 44.2950 -73.3739 191° South 277 319 10,900  Level Boston Center
02:31PM 43.9636 -73.3413 196° South  Level FlightAware Approximate
02:31PM 44.1969 -73.3956 189° South 324 373 13,600  Level Boston Center
02:32PM 43.8798 -73.3741 195° South  Level FlightAware Approximate
02:32PM 44.1114 -73.4175 190° South 324 373 16,200  Level Boston Center
02:33PM 43.7957 -73.4052 195° South  Level FlightAware Approximate
02:33PM 44.0258 -73.4392 190° South 319 367 18,300  Level Boston Center
02:34PM 43.7116 -73.4362 195° South  Level FlightAware Approximate
02:34PM 43.9400 -73.4578 189° South 314 361 20,100  Level Boston Center
02:35PM 43.8544 -73.4767 189° South 314 361 21,700 1,380 Climbing Boston Center
02:36PM 43.7708 -73.5011 192° South 314 361 22,900 1,200 Climbing Boston Center
02:37PM 43.6853 -73.5197 189° South 314 361 24,100 1,020 Climbing Boston Center
02:38PM 43.6061 -73.5353 188° South 319 367 25,000 840 Climbing Boston Center
02:39PM 43.5161 -73.5567 190° South 324 373 25,800 780 Climbing Boston Center
02:40PM 43.4264 -73.5778 190° South 329 379 26,600 840 Climbing Boston Center
02:41PM 43.3364 -73.6019 191° South 329 379 27,500 660 Climbing Boston Center
02:42PM 43.2467 -73.6203 188° South 334 384 28,000 240 Climbing Boston Center
02:43PM 43.1528 -73.6411 189° South 334 384 28,000  Level Boston Center
02:44PM 43.0525 -73.6675 191° South 334 384 28,000  Level Boston Center
02:45PM 42.9606 -73.6883 189° South 334 384 28,000  Level Boston Center
02:46PM 42.8686 -73.7119 191° South 334 384 28,000  Level Boston Center
02:47PM 42.7767 -73.7328 189° South 339 390 28,000  Level Boston Center
02:48PM 42.6867 -73.7536 190° South 339 390 28,000  Level Boston Center
02:49PM 42.5947 -73.7769 191° South 334 384 28,000  Level Boston Center
02:50PM 42.5069 -73.8003 191° South 334 384 28,000  Level Boston Center
02:51PM 42.4128 -73.8181 188° South 339 390 28,000  Level Boston Center
02:52PM 42.3189 -73.8411 190° South 339 390 28,000  Level Boston Center
02:53PM 42.2247 -73.8586 188° South 339 390 28,000  Level Boston Center
02:54PM 42.1306 -73.8847 192° South 339 390 28,000  Level Boston Center
02:55PM 42.0344 -73.9019 188° South 344 396 28,000  Level Boston Center
02:56PM 41.9406 -73.9250 190° South 349 402 28,000  Level Boston Center
02:58PM 41.7725 -73.9583 188° South 338 389 28,000  Level New York Center
02:59PM 41.6781 -73.9789 189° South 338 389 28,000  Level New York Center
03:00PM 41.6028 -73.9947 189° South 338 389 28,000  Level New York Center
03:01PM 41.5075 -74.0483 203° Southwest 313 360 28,000  Level New York Center
03:02PM 41.4350 -74.1167 215° Southwest 318 366 28,000  Level New York Center
03:03PM 41.3622 -74.1822 214° Southwest 325 374 28,000  Level New York Center
03:04PM 41.2939 -74.2394 212° Southwest 330 380 28,000  Level New York Center
03:05PM 41.2253 -74.3047 216° Southwest 325 374 28,000  Level New York Center
03:06PM 41.1547 -74.3672 214° Southwest 318 366 28,000  Level New York Center
03:07PM 41.0839 -74.4322 215° Southwest 318 366 28,000  Level New York Center
03:08PM 41.0111 -74.4944 213° Southwest 323 372 28,000  Level New York Center
03:09PM 40.9383 -74.5589 214° Southwest 323 372 28,000  Level New York Center
03:10PM 40.8875 -74.6494 233° Southwest 317 365 28,000  Level New York Center
03:11PM 40.8447 -74.7458 240° Southwest 310 357 28,000  Level New York Center
03:12PM 40.7975 -74.8444 238° Southwest 315 362 28,000  Level New York Center
03:13PM 40.7544 -74.9431 240° Southwest 315 362 28,000  Level New York Center
03:14PM 40.7050 -75.0469 238° Southwest 327 376 28,000  Level New York Center
03:15PM 40.6572 -75.1533 239° Southwest 332 382 28,000  Level New York Center
03:16PM 40.6053 -75.2650 239° Southwest 342 394 28,000 -480 Level New York Center
03:17PM 40.5528 -75.3789 239° Southwest 352 405 27,100 -1,380 Descending New York Center
03:18PM 40.5006 -75.4928 239° Southwest 364 419 25,300 -1,860 Descending New York Center
03:19PM 40.4503 -75.6011 239° Southwest 369 425 23,500 -2,700 Descending New York Center
03:20PM 40.3953 -75.7172 238° Southwest 355 409 20,000 -1,740 Descending New York Center
03:21PM 40.3519 -75.8094 238° Southwest 349 402 20,100  Climbing New York Center
03:22PM 40.3017 -75.9092 237° Southwest 341 392 20,000 -240 Descending New York Center
03:23PM 40.2489 -76.0194 238° Southwest 335 386 19,700 -540 Descending New York Center
03:24PM 40.2050 -76.1169 240° Southwest 335 386 19,000 -660 Descending New York Center
03:26PM 40.1000 -76.3167 236° Southwest 346 398 17,900 -720 Descending Potomac TRACON
03:27PM 40.0500 -76.4333 241° Southwest 348 400 17,000 -900 Descending Potomac TRACON
03:28PM 40.0000 -76.5333 237° Southwest 355 409 16,100 -900 Descending Potomac TRACON
03:29PM 39.9500 -76.6500 241° Southwest 344 396 15,200 -600 Descending Potomac TRACON
03:30PM 39.9167 -76.7500 247° West 322 371 15,000 -120 Descending Potomac TRACON
03:31PM 39.8667 -76.8333 232° Southwest 318 366 15,000 -420 Level Potomac TRACON
03:32PM 39.8167 -76.9333 237° Southwest 316 364 14,300 -540 Descending Potomac TRACON
03:33PM 39.7833 -77.0333 247° West 303 349 14,000 -300 Descending Potomac TRACON
03:34PM 39.7333 -77.1167 232° Southwest 276 318 13,700 -900 Descending Potomac TRACON
03:35PM 39.7000 -77.2000 243° Southwest 263 303 12,200 -1,440 Descending Potomac TRACON
03:36PM 39.6500 -77.2667 226° Southwest 265 305 10,900 -1,320 Descending Potomac TRACON
03:37PM 39.5833 -77.3000 201° Southwest 278 320 9,700 -1,200 Descending Potomac TRACON
03:38PM 39.5167 -77.3333 201° Southwest 273 314 8,600 -1,200 Descending Potomac TRACON
03:39PM 39.4333 -77.3500 189° South 267 307 7,400 -1,140 Descending Potomac TRACON
03:40PM 39.3667 -77.3667 191° South 261 300 6,400 -1,020 Descending Potomac TRACON
03:41PM 39.2833 -77.3667 180° South 260 299 5,400 -1,020 Descending Potomac TRACON
03:42PM 39.2167 -77.3667 180° South 262 302 4,400 -780 Descending Potomac TRACON
03:43PM 39.1500 -77.3500 169° South 262 302 4,000 -240 Descending Potomac TRACON
03:44PM 39.0833 -77.3500 180° South 261 300 4,000 -120 Level Potomac TRACON
03:46PM 38.9468 -77.3500 180° South  Level FlightAware Approximate
03:46PM 38.9333 -77.3667 180° South 263 303 3,800  Level Potomac TRACON
03:47PM 38.8667 -77.3667 180° South 256 295 2,800 -900 Descending Potomac TRACON
03:48PM 38.8000 -77.4000 201° Southwest 265 305 2,000 -840 Descending Potomac TRACON